EST,Max TemperatureF,Mean TemperatureF,Min TemperatureF,Max Dew PointF,MeanDew PointF,Min DewpointF,Max Humidity, Mean Humidity, Min Humidity, Max Sea Level PressureIn, Mean Sea Level PressureIn, Min Sea Level PressureIn, Max VisibilityMiles, Mean VisibilityMiles, Min VisibilityMiles, Max Wind SpeedMPH, Mean Wind SpeedMPH, Max Gust SpeedMPH,PrecipitationIn, CloudCover, Events, WindDirDegrees
2014-1-1,51,42,33,41,35,28,100,71,41,30.42,30.30,30.16,10,9,5,10,2,12,0.01,4,Rain,113
2014-1-2,51,48,45,49,47,42,100,91,82,30.13,29.79,29.62,10,4,1,18,4,25,0.58,8,Rain,225
2014-1-3,48,37,26,37,15,8,80,56,32,30.47,30.21,29.71,10,10,10,35,13,44,0.00,1,,344
2014-1-4,40,32,24,29,20,11,74,60,45,30.51,30.41,30.26,10,10,10,10,5,13,0.00,6,,38
2014-1-5,65,52,39,61,51,29,100,82,64,30.24,30.02,29.83,10,5,0,15,5,19,0.33,8,Fog-Rain,161
2014-1-6,61,42,23,59,42,-4,100,65,29,30.23,29.83,29.70,10,8,0,31,16,39,0.02,6,Fog-Rain,250
2014-1-7,27,21,14,14,1,-6,71,51,31,30.54,30.45,30.25,10,10,10,23,8,30,0.00,0,,294
2014-1-8,43,30,17,21,14,7,84,53,22,30.62,30.55,30.52,10,10,10,7,1,10,0.00,0,,147
2014-1-9,57,41,25,37,27,17,88,62,36,30.58,30.50,30.44,10,10,10,12,4,14,0.00,4,,60
2014-1-10,70,59,47,64,57,37,100,81,61,30.40,30.19,30.08,10,5,2,15,6,22,0.48,8,Rain,151
2014-1-11,73,64,55,67,61,53,100,90,79,30.07,29.83,29.69,10,7,1,29,10,37,0.97,7,Rain-Thunderstorm,205
2014-1-12,59,48,37,46,38,32,92,64,36,30.20,30.04,29.73,10,10,10,16,7,21,0.00,0,,271
2014-1-13,61,47,32,46,38,31,100,71,42,30.21,30.11,29.97,10,10,9,14,2,19,0.00,1,,183
2014-1-14,56,48,39,55,48,39,100,86,71,30.00,29.90,29.80,10,4,0,16,4,20,0.33,5,Fog-Rain,226
2014-1-15,59,47,35,47,38,33,100,74,47,29.99,29.94,29.85,10,5,0,16,5,22,0.00,1,Fog,164
2014-1-16,46,39,31,35,32,26,89,69,49,30.06,29.99,29.91,10,10,6,16,5,21,0.03,5,Rain,344
2014-1-17,56,43,30,41,32,24,92,69,46,30.07,29.98,29.87,10,10,10,14,6,19,0.00,0,,205
2014-1-18,45,36,27,34,18,12,92,62,32,30.08,30.02,29.89,10,10,10,24,10,33,0.00,1,,266
2014-1-19,56,43,29,31,26,20,82,59,35,30.06,29.99,29.94,10,10,10,20,8,24,T,2,,227
2014-1-20,65,49,33,31,28,26,75,50,25,29.96,29.90,29.82,10,10,10,16,8,21,0.00,0,,222
2014-1-21,63,49,35,40,33,27,85,62,39,29.83,29.67,29.49,10,10,8,30,12,39,0.02,3,Rain,249
2014-1-22,36,29,22,28,16,6,81,55,29,30.12,29.98,29.80,10,10,10,23,7,30,0.00,2,,333
2014-1-23,40,30,20,21,14,7,84,56,27,30.38,30.25,30.11,10,10,10,16,5,20,0.00,0,,318
2014-1-24,29,23,16,10,0,-5,74,49,23,30.63,30.48,30.33,10,10,10,22,8,29,0.00,1,,345
2014-1-25,48,32,16,19,11,3,61,44,26,30.31,29.96,29.72,10,10,10,26,11,34,0.00,3,,222
2014-1-26,54,40,25,28,22,18,81,55,28,30.01,29.94,29.88,10,10,10,16,6,21,0.00,0,,218
2014-1-27,67,55,42,40,35,29,76,54,32,30.03,29.89,29.78,10,10,10,21,9,25,0.00,1,,220
2014-1-28,45,34,22,24,15,-1,88,56,24,30.27,30.19,30.06,10,6,0,22,13,28,0.23,6,Fog-Rain-Snow,28
2014-1-29,27,22,16,19,16,11,92,71,50,30.38,30.23,30.14,10,5,0,16,7,20,0.07,5,Fog-Snow,7
2014-1-30,38,24,10,18,11,5,92,62,32,30.43,30.33,30.24,10,8,1,13,4,15,0.00,2,,17
2014-1-31,53,37,21,29,18,8,85,52,19,30.26,30.20,30.16,10,10,10,8,1,23,0.00,1,,259